Time;durP1;ratioP1;P1;durP2;ratioP2;P2;SDS_P1;SDS_P2;PMS_P1;PMS_P2;Temp;Humidity;BMP_temperature;BMP_pressure;BME280_temperature;BME280_humidity;BME280_pressure;Samples;Min_cycle;Max_cycle;Signal;HPM_P1;HPM_P2
2023/07/27 00:00:30;;;;;;;5.32;3.05;;;18.60;99.90;;;;;;4053441;29;20228;-93
2023/07/27 00:02:31;;;;;;;7.82;3.45;;;18.60;99.90;;;;;;4037697;29;20698;-93
2023/07/27 00:04:32;;;;;;;9.57;3.60;;;18.50;99.90;;;;;;4037815;29;20190;-93
2023/07/27 00:06:33;;;;;;;7.32;2.92;;;18.60;99.90;;;;;;4053517;29;20625;-92
2023/07/27 00:08:33;;;;;;;11.52;3.17;;;18.70;99.90;;;;;;4053398;29;20184;-93
2023/07/27 00:10:34;;;;;;;8.43;3.45;;;18.80;99.90;;;;;;4053388;29;20197;-93
2023/07/27 00:12:35;;;;;;;7.32;3.92;;;18.80;99.90;;;;;;4053067;29;20197;-92
2023/07/27 00:14:36;;;;;;;7.15;3.00;;;18.80;99.90;;;;;;4037729;29;20181;-92
2023/07/27 00:16:36;;;;;;;7.53;2.80;;;18.70;99.90;;;;;;4053394;29;20276;-93
2023/07/27 00:18:37;;;;;;;8.13;3.13;;;18.70;99.90;;;;;;4037803;29;20177;-93
2023/07/27 00:20:38;;;;;;;7.10;2.90;;;18.60;99.90;;;;;;4053157;29;20311;-92
2023/07/27 00:22:39;;;;;;;6.25;3.13;;;18.50;99.90;;;;;;4037524;29;20177;-93
2023/07/27 00:24:39;;;;;;;5.80;2.88;;;18.50;99.90;;;;;;4053364;29;20694;-93
2023/07/27 00:26:41;;;;;;;5.75;3.10;;;18.40;99.90;;;;;;4037861;29;20181;-92
2023/07/27 00:28:42;;;;;;;8.93;3.15;;;18.30;99.90;;;;;;4053105;29;20215;-92
2023/07/27 00:30:43;;;;;;;5.75;3.05;;;18.20;99.90;;;;;;4037637;29;20889;-92
2023/07/27 00:32:43;;;;;;;9.30;3.53;;;18.10;99.90;;;;;;4053082;29;20188;-92
2023/07/27 00:34:44;;;;;;;7.38;3.45;;;18.30;99.90;;;;;;4037583;29;20192;-92
2023/07/27 00:36:46;;;;;;;7.93;3.17;;;18.30;99.90;;;;;;4053185;29;20225;-90
2023/07/27 00:38:46;;;;;;;7.18;3.55;;;18.40;99.90;;;;;;4037436;29;20293;-92
2023/07/27 00:40:47;;;;;;;9.70;3.25;;;18.50;99.90;;;;;;4053008;29;20323;-92
2023/07/27 00:42:48;;;;;;;8.38;3.67;;;18.60;99.90;;;;;;4037302;29;20217;-91
2023/07/27 00:44:49;;;;;;;8.02;3.80;;;18.30;99.90;;;;;;4052842;29;20192;-92
2023/07/27 00:46:51;;;;;;;11.90;4.25;;;18.30;99.90;;;;;;4052936;29;20199;-92
2023/07/27 00:48:52;;;;;;;9.32;3.85;;;18.60;99.90;;;;;;4037663;29;20212;-92
2023/07/27 00:50:56;;;;;;;10.18;3.63;;;18.60;99.90;;;;;;4052938;29;20189;-94
2023/07/27 00:52:58;;;;;;;12.40;4.70;;;18.30;99.90;;;;;;4037692;29;20186;-94
2023/07/27 00:54:59;;;;;;;8.93;4.70;;;18.40;99.90;;;;;;4052845;29;20185;-92
2023/07/27 00:57:01;;;;;;;14.10;4.95;;;18.20;99.90;;;;;;4052708;29;20228;-93
2023/07/27 00:59:02;;;;;;;10.15;4.55;;;18.20;99.90;;;;;;4037196;29;20626;-92
2023/07/27 01:01:04;;;;;;;8.85;4.93;;;18.10;99.90;;;;;;4052663;29;20251;-92
2023/07/27 01:03:05;;;;;;;8.98;4.82;;;18.10;99.90;;;;;;4037377;29;20216;-93
2023/07/27 01:05:06;;;;;;;9.65;4.82;;;18.00;99.90;;;;;;4052680;29;20189;-92
2023/07/27 01:07:07;;;;;;;8.35;4.95;;;17.90;99.90;;;;;;4037189;29;20559;-92
2023/07/27 01:09:08;;;;;;;9.60;4.82;;;18.00;99.90;;;;;;4052624;29;20204;-92
2023/07/27 01:11:24;;;;;;;14.70;5.97;;;18.00;99.90;;;;;;4052515;29;20181;-92
2023/07/27 01:13:32;;;;;;;14.43;6.63;;;17.70;99.90;;;;;;4052704;29;20188;-94
2023/07/27 01:15:37;;;;;;;12.77;5.85;;;17.90;99.90;;;;;;4037169;29;20226;-91
2023/07/27 01:18:12;;;;;;;10.32;5.95;;;17.80;99.90;;;;;;4052574;29;20249;-92
2023/07/27 01:20:19;;;;;;;11.25;5.63;;;17.80;99.90;;;;;;4052889;29;20715;-92
2023/07/27 01:22:42;;;;;;;9.02;5.57;;;17.80;99.90;;;;;;4052948;29;20649;-92
2023/07/27 01:25:10;;;;;;;11.13;5.65;;;17.60;99.90;;;;;;4052991;29;20192;-92
2023/07/27 01:27:31;;;;;;;11.38;5.03;;;17.60;99.90;;;;;;4037303;29;20181;-92
2023/07/27 01:29:52;;;;;;;10.43;4.72;;;17.50;99.90;;;;;;4036731;29;20237;-93
2023/07/27 01:31:54;;;;;;;15.27;5.85;;;17.50;99.90;;;;;;4037139;29;20189;-93
2023/07/27 01:34:01;;;;;;;9.15;4.55;;;17.70;99.90;;;;;;4037452;29;20198;-93
2023/07/27 01:36:24;;;;;;;10.20;4.78;;;17.50;99.90;;;;;;4039716;29;20298;-95
2023/07/27 01:38:26;;;;;;;11.93;4.78;;;17.70;99.90;;;;;;4039812;29;20294;-93
2023/07/27 01:40:30;;;;;;;9.57;4.57;;;17.70;99.90;;;;;;4055529;29;20228;-93
2023/07/27 01:42:31;;;;;;;9.73;4.60;;;17.80;99.90;;;;;;4040017;29;20186;-94
2023/07/27 01:44:33;;;;;;;12.43;4.88;;;17.70;99.90;;;;;;4055305;29;20188;-93
2023/07/27 01:46:35;;;;;;;12.70;4.45;;;17.50;99.90;;;;;;4039911;29;20723;-93
2023/07/27 01:48:38;;;;;;;9.45;4.20;;;17.40;99.90;;;;;;4055132;29;20192;-93
2023/07/27 01:50:40;;;;;;;9.18;3.83;;;17.40;99.90;;;;;;4055389;29;20189;-94
2023/07/27 01:52:43;;;;;;;9.30;3.97;;;17.20;99.90;;;;;;4055395;29;20237;-92
2023/07/27 01:54:46;;;;;;;7.70;3.83;;;17.30;99.90;;;;;;4039837;29;20261;-92
2023/07/27 01:56:49;;;;;;;6.00;3.95;;;17.10;99.90;;;;;;4039710;29;20182;-92
2023/07/27 01:58:52;;;;;;;9.77;4.45;;;17.10;99.90;;;;;;4039925;29;20205;-92
2023/07/27 02:00:55;;;;;;;7.47;4.50;;;17.10;99.90;;;;;;4039871;29;20221;-92
2023/07/27 02:02:56;;;;;;;9.85;5.50;;;17.10;99.90;;;;;;4055218;29;20189;-92
2023/07/27 02:04:58;;;;;;;11.18;5.10;;;17.10;99.90;;;;;;4039591;29;20181;-93
2023/07/27 02:06:58;;;;;;;13.48;5.03;;;17.10;99.90;;;;;;4055324;29;20681;-92
2023/07/27 02:08:59;;;;;;;9.40;5.47;;;17.10;99.90;;;;;;4055139;29;20209;-92
2023/07/27 02:11:04;;;;;;;7.57;5.00;;;17.10;99.90;;;;;;4055211;29;20209;-92
2023/07/27 02:13:13;;;;;;;9.02;4.68;;;17.00;99.90;;;;;;4055150;29;20539;-92
2023/07/27 02:15:19;;;;;;;8.73;4.35;;;16.90;99.90;;;;;;4039479;29;20229;-95
2023/07/27 02:17:34;;;;;;;7.43;4.32;;;16.80;99.90;;;;;;4055082;29;20249;-93
2023/07/27 02:19:39;;;;;;;5.80;3.67;;;16.80;99.90;;;;;;4039609;29;20277;-94
2023/07/27 02:21:41;;;;;;;10.48;3.80;;;16.70;99.90;;;;;;4070730;29;20228;-93
2023/07/27 02:23:42;;;;;;;9.30;3.60;;;16.60;99.90;;;;;;4055210;29;20296;-92
2023/07/27 02:25:43;;;;;;;7.20;3.45;;;16.80;99.90;;;;;;4055035;29;20193;-93
2023/07/27 02:27:44;;;;;;;8.65;3.35;;;16.70;99.90;;;;;;4039306;29;20208;-92
2023/07/27 02:29:46;;;;;;;6.80;3.25;;;16.50;99.90;;;;;;4054660;29;20766;-92
2023/07/27 02:31:47;;;;;;;7.38;3.50;;;16.50;99.90;;;;;;4054851;29;20196;-92
2023/07/27 02:33:47;;;;;;;9.32;3.45;;;16.50;99.90;;;;;;4039197;29;20182;-93
2023/07/27 02:35:49;;;;;;;6.28;2.95;;;16.60;99.90;;;;;;4054745;29;20283;-94
2023/07/27 02:37:50;;;;;;;8.85;3.60;;;16.60;99.90;;;;;;4039592;29;20185;-92
2023/07/27 02:39:50;;;;;;;5.40;3.08;;;16.60;99.90;;;;;;4054640;29;20212;-94
2023/07/27 02:41:52;;;;;;;5.78;3.42;;;16.60;99.90;;;;;;4054653;29;20198;-94
2023/07/27 02:43:54;;;;;;;7.88;3.53;;;16.40;99.90;;;;;;4039470;29;20185;-94
2023/07/27 02:45:59;;;;;;;5.78;3.15;;;16.40;99.90;;;;;;4039344;29;20197;-93
2023/07/27 02:48:01;;;;;;;8.18;3.65;;;16.60;99.90;;;;;;4054633;29;20233;-93
2023/07/27 02:50:02;;;;;;;6.05;3.40;;;16.60;99.90;;;;;;4040485;29;20213;-93
2023/07/27 02:52:04;;;;;;;6.85;3.47;;;16.50;99.90;;;;;;4057044;29;20646;-93
2023/07/27 02:54:05;;;;;;;7.13;3.47;;;16.40;99.90;;;;;;4039054;29;20189;-93
2023/07/27 02:56:08;;;;;;;7.57;3.60;;;16.60;99.90;;;;;;4054413;29;20181;-95
2023/07/27 02:58:16;;;;;;;4.60;3.25;;;16.50;99.90;;;;;;4040000;29;20190;-94
2023/07/27 03:00:17;;;;;;;6.30;3.17;;;16.40;99.90;;;;;;4054071;29;20698;-94
2023/07/27 03:02:21;;;;;;;7.45;3.70;;;16.50;99.90;;;;;;4054462;29;20181;-94
2023/07/27 03:04:22;;;;;;;5.13;3.25;;;16.60;99.90;;;;;;4039050;29;20189;-94
2023/07/27 03:06:23;;;;;;;9.05;4.03;;;16.70;99.90;;;;;;4054329;29;20204;-93
2023/07/27 03:08:30;;;;;;;9.20;3.80;;;16.80;99.90;;;;;;4054259;29;20646;-95
2023/07/27 03:10:34;;;;;;;5.50;3.42;;;17.00;99.90;;;;;;4039101;29;20253;-94
2023/07/27 03:12:35;;;;;;;9.13;3.70;;;16.90;99.90;;;;;;4038620;29;20333;-93
2023/07/27 03:14:36;;;;;;;8.35;3.63;;;16.80;99.90;;;;;;4054073;29;20630;-93
2023/07/27 03:16:37;;;;;;;6.53;3.63;;;16.70;99.90;;;;;;4054268;29;20189;-93
2023/07/27 03:18:38;;;;;;;7.93;4.10;;;16.60;99.90;;;;;;4038663;29;20261;-95
2023/07/27 03:20:39;;;;;;;7.00;3.53;;;16.70;99.90;;;;;;4053869;29;20220;-94
2023/07/27 03:22:40;;;;;;;5.85;4.18;;;16.70;99.90;;;;;;4039173;29;20185;-95
2023/07/27 03:24:44;;;;;;;7.45;3.78;;;16.80;99.90;;;;;;4054205;29;20189;-95
2023/07/27 03:26:45;;;;;;;7.43;4.03;;;16.90;99.90;;;;;;4038939;29;20184;-93
2023/07/27 03:28:46;;;;;;;7.53;3.85;;;16.80;99.90;;;;;;4038702;29;20695;-95
2023/07/27 03:30:47;;;;;;;7.57;3.05;;;16.80;99.90;;;;;;4054328;29;20181;-95
2023/07/27 03:32:49;;;;;;;6.95;3.42;;;16.60;99.90;;;;;;4038588;29;20182;-93
2023/07/27 03:34:49;;;;;;;5.72;3.10;;;16.60;99.90;;;;;;4038436;29;20272;-93
2023/07/27 03:36:50;;;;;;;7.82;3.25;;;16.70;99.90;;;;;;4054002;29;20189;-94
2023/07/27 03:38:59;;;;;;;7.45;3.17;;;16.80;99.90;;;;;;4039094;29;20303;-95
2023/07/27 03:40:59;;;;;;;4.95;2.88;;;16.80;99.90;;;;;;4053678;29;20308;-93
2023/07/27 03:43:00;;;;;;;4.80;3.03;;;16.90;99.90;;;;;;4054056;29;20189;-95
2023/07/27 03:45:01;;;;;;;5.38;2.85;;;17.10;99.90;;;;;;4038371;29;20182;-94
2023/07/27 03:47:02;;;;;;;4.40;2.63;;;17.00;99.90;;;;;;4053802;29;20207;-95
2023/07/27 03:49:09;;;;;;;16.13;2.97;;;16.90;99.90;;;;;;4054185;29;20212;-94
2023/07/27 03:51:09;;;;;;;4.07;2.78;;;16.90;99.90;;;;;;4038211;29;20241;-94
2023/07/27 03:53:13;;;;;;;7.50;2.70;;;16.80;99.90;;;;;;4053806;29;20221;-95
2023/07/27 03:55:18;;;;;;;3.55;2.55;;;16.70;99.90;;;;;;4053703;29;20192;-94
2023/07/27 03:57:20;;;;;;;5.00;3.13;;;16.70;99.90;;;;;;4052734;29;20268;-94
2023/07/27 03:59:20;;;;;;;5.68;2.88;;;16.80;99.90;;;;;;4037638;29;20228;-94
2023/07/27 04:01:21;;;;;;;8.75;4.10;;;16.90;99.90;;;;;;4053569;29;20365;-95
2023/07/27 04:03:25;;;;;;;4.47;3.20;;;17.00;99.90;;;;;;4053833;29;20185;-95
2023/07/27 04:05:31;;;;;;;5.07;3.08;;;17.00;99.90;;;;;;4053484;29;20244;-95
2023/07/27 04:07:32;;;;;;;5.63;3.20;;;17.00;99.90;;;;;;4038391;29;20182;-93
2023/07/27 04:09:33;;;;;;;5.05;3.30;;;16.90;99.90;;;;;;4053986;29;20219;-94
2023/07/27 04:11:33;;;;;;;7.97;3.72;;;17.20;99.90;;;;;;4037874;29;20231;-95
2023/07/27 04:13:34;;;;;;;12.65;3.80;;;17.10;99.90;;;;;;4037902;29;20181;-94
2023/07/27 04:15:35;;;;;;;7.78;4.05;;;17.30;99.90;;;;;;4053248;29;20617;-94
2023/07/27 04:17:38;;;;;;;7.18;3.85;;;17.40;99.90;;;;;;4038452;29;20739;-95
2023/07/27 04:19:49;;;;;;;8.95;4.07;;;17.40;99.90;;;;;;4038747;29;20310;-96
2023/07/27 04:21:52;;;;;;;7.60;3.90;;;17.30;99.90;;;;;;4037713;29;20567;-94
2023/07/27 04:23:54;;;;;;;7.25;3.88;;;17.30;99.90;;;;;;4053877;29;20177;-95
2023/07/27 04:25:55;;;;;;;7.88;4.28;;;17.40;99.90;;;;;;4053800;29;20654;-95
2023/07/27 04:27:55;;;;;;;5.35;3.90;;;17.50;99.90;;;;;;4038252;29;20180;-94
2023/07/27 04:29:59;;;;;;;8.70;4.53;;;17.50;99.90;;;;;;4053712;29;20593;-95
2023/07/27 04:32:00;;;;;;;7.28;4.40;;;17.60;99.90;;;;;;4053914;29;20750;-95
2023/07/27 04:34:00;;;;;;;8.45;4.18;;;17.60;99.90;;;;;;4053819;29;20193;-95
2023/07/27 04:36:01;;;;;;;13.73;4.55;;;17.60;99.90;;;;;;4053650;29;20208;-95
2023/07/27 04:38:02;;;;;;;9.70;4.45;;;17.50;99.90;;;;;;4053355;29;20197;-95
2023/07/27 04:40:03;;;;;;;8.57;3.97;;;17.50;99.90;;;;;;4038181;29;20276;-94
2023/07/27 04:42:04;;;;;;;6.55;3.92;;;17.50;99.90;;;;;;4054155;29;20193;-95
2023/07/27 04:44:05;;;;;;;7.82;4.32;;;17.60;99.90;;;;;;4053818;29;20177;-94
2023/07/27 04:46:06;;;;;;;6.22;3.65;;;17.60;99.90;;;;;;4053159;29;20292;-95
2023/07/27 04:48:12;;;;;;;8.93;4.03;;;17.60;99.90;;;;;;4038364;29;20743;-96
2023/07/27 04:50:15;;;;;;;12.07;4.13;;;17.60;99.90;;;;;;4038001;29;20277;-95
2023/07/27 04:52:16;;;;;;;6.30;3.70;;;17.70;99.90;;;;;;4053885;29;20654;-95
2023/07/27 04:54:17;;;;;;;7.38;4.07;;;17.50;99.90;;;;;;4039481;29;20185;-94
2023/07/27 04:56:21;;;;;;;6.90;3.58;;;17.50;99.90;;;;;;4053845;29;20550;-95
2023/07/27 04:58:28;;;;;;;7.25;3.83;;;17.50;99.90;;;;;;4054227;29;20192;-95
2023/07/27 05:00:29;;;;;;;7.85;3.83;;;17.50;99.90;;;;;;4038560;29;20225;-96
2023/07/27 05:02:34;;;;;;;7.78;3.58;;;17.60;99.90;;;;;;4053883;29;20212;-95
2023/07/27 05:04:35;;;;;;;6.00;3.28;;;17.50;99.90;;;;;;4038122;29;20200;-96
2023/07/27 05:06:38;;;;;;;7.93;3.70;;;17.50;99.90;;;;;;4053148;29;20276;-95
2023/07/27 05:08:39;;;;;;;7.13;3.92;;;17.60;99.90;;;;;;4038257;29;20193;-95
2023/07/27 05:10:40;;;;;;;14.55;4.25;;;17.70;99.90;;;;;;4056668;29;20212;-94
2023/07/27 05:12:41;;;;;;;8.20;4.00;;;17.70;99.90;;;;;;4041104;29;20193;-95
2023/07/27 05:14:54;;;;;;;6.03;3.63;;;17.80;99.90;;;;;;4057179;29;20533;-95
2023/07/27 05:17:00;;;;;;;7.72;4.10;;;17.80;99.90;;;;;;4041715;29;20643;-95
2023/07/27 05:19:03;;;;;;;6.68;3.75;;;17.80;99.90;;;;;;4041593;29;20209;-95
2023/07/27 05:21:09;;;;;;;12.13;3.90;;;17.80;99.90;;;;;;4057523;29;20220;-95
2023/07/27 05:23:48;;;;;;;9.55;3.72;;;17.90;99.90;;;;;;4044634;29;20563;-95
2023/07/27 05:25:50;;;;;;;6.32;3.70;;;18.00;99.90;;;;;;4041040;29;20666;-95
2023/07/27 05:27:51;;;;;;;8.10;3.65;;;18.00;99.90;;;;;;4040673;29;20185;-94
2023/07/27 05:29:54;;;;;;;5.65;3.40;;;18.10;99.90;;;;;;4057218;29;20212;-96
2023/07/27 05:31:55;;;;;;;6.57;3.67;;;18.00;99.90;;;;;;4042088;29;20257;-96
2023/07/27 05:34:14;;;;;;;6.72;3.38;;;18.20;99.90;;;;;;4058743;29;20275;-96
2023/07/27 05:36:15;;;;;;;7.07;3.67;;;18.10;99.90;;;;;;4040632;29;20189;-95
2023/07/27 05:38:18;;;;;;;9.68;3.88;;;18.10;99.90;;;;;;4056363;29;20673;-94
2023/07/27 05:40:18;;;;;;;8.63;3.78;;;18.30;99.90;;;;;;4042009;29;20300;-96
2023/07/27 05:42:21;;;;;;;6.32;3.33;;;18.30;99.90;;;;;;4058164;29;20204;-96
2023/07/27 05:44:22;;;;;;;8.38;3.58;;;18.10;99.90;;;;;;4040268;29;20249;-95
2023/07/27 05:46:23;;;;;;;5.38;3.13;;;18.20;99.90;;;;;;4056580;29;20245;-95
2023/07/27 05:48:24;;;;;;;5.45;3.28;;;18.10;99.90;;;;;;4041577;29;20206;-93
2023/07/27 05:50:32;;;;;;;5.88;3.28;;;18.10;99.90;;;;;;4042574;29;20204;-96
2023/07/27 05:52:33;;;;;;;4.93;3.45;;;18.20;99.90;;;;;;4056117;29;20180;-95
2023/07/27 05:54:34;;;;;;;8.73;3.20;;;18.10;99.90;;;;;;4056594;29;20670;-94
2023/07/27 05:56:34;;;;;;;7.32;2.92;;;18.10;99.90;;;;;;4040173;29;20193;-94
2023/07/27 05:58:35;;;;;;;3.55;2.63;;;18.10;99.90;;;;;;4055573;29;20281;-94
2023/07/27 06:00:36;;;;;;;8.13;2.95;;;18.20;99.90;;;;;;4040273;29;20225;-94
2023/07/27 06:02:40;;;;;;;7.47;3.10;;;18.30;99.90;;;;;;4042963;29;20190;-95
2023/07/27 06:04:47;;;;;;;4.78;2.90;;;18.30;99.90;;;;;;4055963;29;20241;-95
2023/07/27 06:06:48;;;;;;;7.97;3.03;;;18.40;99.90;;;;;;4056101;29;20203;-95
2023/07/27 06:08:48;;;;;;;9.18;2.70;;;18.30;99.90;;;;;;4055702;29;20207;-96
2023/07/27 06:11:09;;;;;;;3.85;2.10;;;18.30;99.90;;;;;;4056416;29;20212;-96
2023/07/27 06:13:10;;;;;;;4.43;2.10;;;18.50;99.90;;;;;;4040108;29;20193;-95
2023/07/27 06:15:14;;;;;;;4.22;2.20;;;18.40;99.90;;;;;;4054885;29;20181;-95
2023/07/27 06:17:14;;;;;;;4.25;2.00;;;18.60;99.90;;;;;;4040276;29;20285;-96
2023/07/27 06:19:15;;;;;;;5.00;2.22;;;18.70;99.90;;;;;;4056467;29;20205;-95
2023/07/27 06:21:16;;;;;;;3.85;2.15;;;18.70;99.90;;;;;;4055162;29;20224;-94
2023/07/27 06:23:17;;;;;;;4.07;1.95;;;18.60;99.90;;;;;;4055267;29;20658;-95
2023/07/27 06:25:22;;;;;;;4.25;1.70;;;18.60;99.90;;;;;;4041874;29;20189;-95
2023/07/27 06:27:23;;;;;;;4.38;1.98;;;18.70;99.90;;;;;;4055656;29;20611;-94
2023/07/27 06:29:24;;;;;;;2.83;1.80;;;18.70;99.90;;;;;;4056508;29;20209;-96
2023/07/27 06:31:24;;;;;;;2.30;1.77;;;18.50;99.90;;;;;;4039776;29;20571;-95
2023/07/27 06:33:30;;;;;;;4.10;1.60;;;18.40;99.90;;;;;;4071099;29;20200;-96
2023/07/27 06:35:32;;;;;;;3.38;1.80;;;18.40;99.90;;;;;;4042490;29;20185;-95
2023/07/27 06:37:43;;;;;;;2.75;1.50;;;18.50;99.90;;;;;;4040460;29;20185;-95
2023/07/27 06:39:49;;;;;;;3.47;1.65;;;18.60;99.90;;;;;;4055991;29;20216;-96
2023/07/27 06:41:51;;;;;;;2.13;1.35;;;18.60;99.90;;;;;;4042121;29;20324;-95
2023/07/27 06:44:02;;;;;;;4.70;1.50;;;18.70;99.90;;;;;;4056246;29;20187;-96
2023/07/27 06:46:26;;;;;;;4.05;1.40;;;18.60;99.90;;;;;;4055995;29;20670;-95
2023/07/27 06:48:32;;;;;;;2.05;1.25;;;18.70;99.90;;;;;;4040588;29;20185;-96
2023/07/27 06:50:33;;;;;;;5.00;1.52;;;18.70;99.90;;;;;;4055024;29;20607;-95
2023/07/27 06:52:37;;;;;;;3.50;1.20;;;18.70;99.90;;;;;;4055090;29;20682;-96
2023/07/27 06:54:44;;;;;;;5.70;1.30;;;18.70;99.90;;;;;;4056202;29;20442;-96
2023/07/27 06:59:48;;;;;;;1.20;1.00;;;19.00;99.90;;;;;;4055793;29;20208;-96
2023/07/27 07:01:49;;;;;;;4.45;1.00;;;18.70;99.90;;;;;;4039479;29;20730;-95
2023/07/27 07:03:50;;;;;;;1.05;0.95;;;18.70;99.90;;;;;;4055245;29;20189;-96
2023/07/27 07:06:03;;;;;;;3.13;1.00;;;18.80;99.90;;;;;;4056408;29;20807;-96
2023/07/27 07:08:04;;;;;;;3.15;1.10;;;18.80;99.90;;;;;;4056049;29;20284;-95
2023/07/27 07:10:06;;;;;;;3.88;1.17;;;18.90;99.90;;;;;;4039055;29;20201;-94
2023/07/27 07:12:10;;;;;;;1.15;0.70;;;18.70;99.90;;;;;;4044172;29;20178;-96
2023/07/27 07:16:37;;;;;;;1.02;0.90;;;18.80;99.90;;;;;;4047402;29;20697;-94
2023/07/27 07:18:38;;;;;;;2.13;0.75;;;18.80;99.90;;;;;;4039172;29;20193;-94
2023/07/27 07:20:39;;;;;;;4.50;0.90;;;18.90;99.90;;;;;;4056218;29;20228;-95
2023/07/27 07:22:48;;;;;;;2.90;0.90;;;18.70;99.90;;;;;;4058190;29;20306;-96
2023/07/27 07:24:54;;;;;;;1.85;0.98;;;18.80;99.90;;;;;;4040950;29;20207;-96
2023/07/27 07:27:03;;;;;;;2.05;0.65;;;19.20;99.90;;;;;;4055721;29;20225;-96
2023/07/27 07:29:04;;;;;;;1.75;0.70;;;19.10;99.90;;;;;;4041819;29;20208;-96
2023/07/27 07:31:06;;;;;;;0.98;0.60;;;19.00;99.90;;;;;;4071720;29;20184;-95
2023/07/27 07:33:06;;;;;;;0.77;0.50;;;18.80;99.90;;;;;;4055445;29;20177;-96
2023/07/27 07:35:07;;;;;;;2.70;0.63;;;18.60;99.90;;;;;;4056180;29;20224;-95
2023/07/27 07:37:26;;;;;;;1.00;0.60;;;18.80;99.90;;;;;;4042901;29;20185;-96
2023/07/27 07:42:17;;;;;;;2.85;0.75;;;18.80;99.90;;;;;;4056207;29;20257;-95
2023/07/27 07:44:43;;;;;;;2.80;0.70;;;18.90;99.90;;;;;;4041804;29;20182;-95
2023/07/27 07:46:59;;;;;;;1.35;0.50;;;19.00;99.90;;;;;;4057190;29;20181;-96
2023/07/27 07:49:19;;;;;;;0.60;0.60;;;19.20;99.90;;;;;;4040056;29;20209;-96
2023/07/27 07:51:40;;;;;;;1.38;0.50;;;19.30;99.90;;;;;;4039599;29;20186;-95
2023/07/27 07:53:46;;;;;;;1.52;0.60;;;19.40;99.90;;;;;;4041924;29;20201;-95
2023/07/27 07:55:50;;;;;;;1.05;0.40;;;19.40;99.90;;;;;;4057654;29;20187;-95
2023/07/27 07:58:01;;;;;;;0.75;0.52;;;19.30;99.90;;;;;;4057504;29;20197;-95
2023/07/27 08:00:06;;;;;;;2.78;0.60;;;19.20;99.90;;;;;;4040249;29;20212;-95
2023/07/27 08:02:19;;;;;;;0.95;0.70;;;19.20;99.90;;;;;;4056356;29;20181;-96
2023/07/27 08:04:30;;;;;;;;;;;;;;;;;;;;;
2023/07/27 08:06:45;;;;;;;1.98;0.70;;;19.40;99.90;;;;;;4055482;29;20224;-96
2023/07/27 08:08:49;;;;;;;1.27;0.77;;;19.20;99.90;;;;;;4055525;29;20232;-96
2023/07/27 08:13:25;;;;;;;2.00;0.80;;;19.30;99.90;;;;;;4062764;29;20275;-96
2023/07/27 08:15:42;;;;;;;;;;;;;;;;;;;;;
2023/07/27 08:18:07;;;;;;;1.58;0.80;;;19.30;99.90;;;;;;4055895;29;20207;-96
2023/07/27 08:20:19;;;;;;;2.08;0.90;;;19.20;99.90;;;;;;4055777;29;20264;-96
2023/07/27 08:22:28;;;;;;;1.67;0.90;;;19.10;99.90;;;;;;4036508;29;20244;-94
2023/07/27 08:24:51;;;;;;;1.83;0.80;;;19.10;99.90;;;;;;4056044;29;20534;-96
2023/07/27 08:27:04;;;;;;;2.33;1.08;;;18.90;99.90;;;;;;4055050;29;20185;-95
2023/07/27 08:29:43;;;;;;;2.20;1.00;;;18.90;99.90;;;;;;4039911;29;20578;-96
2023/07/27 08:31:48;;;;;;;3.70;1.10;;;19.30;99.90;;;;;;4069667;29;20180;-96
2023/07/27 08:33:54;;;;;;;3.40;1.30;;;19.40;99.90;;;;;;4040269;29;20261;-95
2023/07/27 08:35:55;;;;;;;2.63;1.25;;;19.60;99.90;;;;;;4054100;29;20184;-96
2023/07/27 08:38:07;;;;;;;2.55;1.30;;;19.40;99.90;;;;;;4055158;29;20675;-96
2023/07/27 08:40:19;;;;;;;2.42;1.10;;;19.50;99.90;;;;;;4039650;29;20552;-96
2023/07/27 08:42:50;;;;;;;1.52;1.00;;;19.60;99.90;;;;;;4055489;29;20226;-95
2023/07/27 08:45:01;;;;;;;1.83;0.80;;;19.70;99.90;;;;;;4055979;29;20223;-96
2023/07/27 08:47:02;;;;;;;0.82;0.65;;;19.30;99.90;;;;;;4040357;29;20193;-95
2023/07/27 08:49:14;;;;;;;1.33;0.80;;;19.50;99.90;;;;;;4057593;28;20226;-92
2023/07/27 08:51:40;;;;;;;1.40;1.10;;;19.50;99.90;;;;;;4039941;29;20215;-96
2023/07/27 08:54:04;;;;;;;3.83;1.15;;;19.50;99.90;;;;;;4039817;29;20670;-95
2023/07/27 08:56:10;;;;;;;2.30;1.10;;;19.50;99.90;;;;;;4040124;29;20608;-96
2023/07/27 08:58:11;;;;;;;1.63;1.50;;;19.40;99.90;;;;;;4041243;29;20189;-94
2023/07/27 09:00:18;;;;;;;1.70;1.40;;;19.40;99.90;;;;;;4039055;29;20223;-95
2023/07/27 09:02:28;;;;;;;2.08;0.93;;;19.40;99.90;;;;;;4038910;29;20250;-96
2023/07/27 09:04:31;;;;;;;2.88;0.90;;;19.40;99.90;;;;;;4056220;29;20252;-95
2023/07/27 09:06:49;;;;;;;0.80;0.77;;;19.20;99.90;;;;;;4040122;29;20186;-96
2023/07/27 09:09:18;;;;;;;0.70;0.50;;;19.20;99.90;;;;;;4054147;29;20276;-96
2023/07/27 09:11:45;;;;;;;1.23;0.50;;;19.50;99.90;;;;;;4041249;29;20203;-95
2023/07/27 09:14:04;;;;;;;1.38;0.30;;;19.30;99.90;;;;;;4039129;29;20277;-96
2023/07/27 09:16:25;;;;;;;0.82;0.30;;;19.20;99.90;;;;;;4054207;29;20532;-96
2023/07/27 09:18:35;;;;;;;0.20;0.20;;;19.30;99.90;;;;;;4053961;29;20180;-96
2023/07/27 09:21:44;;;;;;;0.50;0.20;;;19.10;99.90;;;;;;4038736;29;20239;-96
2023/07/27 09:23:30;;;;;;;0.55;0.30;;;19.20;99.90;;;;;;4046550;29;20199;-96
2023/07/27 09:25:41;;;;;;;0.70;0.38;;;19.30;99.90;;;;;;4039942;29;20273;-96
2023/07/27 09:27:53;;;;;;;0.32;0.32;;;19.40;99.90;;;;;;4042522;29;20272;-96
2023/07/27 09:30:20;;;;;;;0.98;0.50;;;19.50;99.90;;;;;;4039182;29;20312;-96
2023/07/27 09:32:36;;;;;;;0.60;0.57;;;19.50;99.90;;;;;;4041009;29;20190;-96
2023/07/27 09:34:40;;;;;;;5.22;0.68;;;19.60;99.90;;;;;;4041306;29;20238;-96
2023/07/27 09:36:49;;;;;;;2.75;0.57;;;19.70;99.90;;;;;;4055211;29;20185;-96
2023/07/27 09:39:21;;;;;;;1.85;0.70;;;19.70;99.90;;;;;;4060039;29;20204;-96
2023/07/27 09:41:50;;;;;;;0.85;0.50;;;19.90;99.90;;;;;;4061234;29;20224;-96
2023/07/27 09:44:14;;;;;;;1.33;0.60;;;19.80;99.90;;;;;;4044682;29;20262;-96
2023/07/27 09:46:40;;;;;;;1.75;1.20;;;19.90;99.90;;;;;;4036479;29;20265;-96
2023/07/27 09:49:37;;;;;;;4.38;1.58;;;19.80;99.90;;;;;;4044206;29;20254;-95
2023/07/27 09:51:53;;;;;;;1.88;1.20;;;19.70;99.90;;;;;;4058931;29;20177;-96
2023/07/27 09:54:25;;;;;;;1.83;1.20;;;19.50;99.90;;;;;;4060701;29;20188;-96
2023/07/27 09:56:39;;;;;;;1.27;1.00;;;19.30;99.90;;;;;;4059535;29;20191;-96
2023/07/27 10:01:24;;;;;;;5.68;1.60;;;19.70;99.90;;;;;;4058122;29;20220;-95
2023/07/27 10:03:58;;;;;;;2.25;1.40;;;19.70;99.90;;;;;;4044256;29;20178;-96
2023/07/27 10:10:33;;;;;;;1.85;1.52;;;19.50;99.90;;;;;;4072427;29;20227;-96
2023/07/27 10:13:34;;;;;;;1.85;1.70;;;19.20;99.90;;;;;;4014634;29;20198;-96
2023/07/27 10:16:38;;;;;;;;;;;;;;;;;;;;;
2023/07/27 10:18:46;;;;;;;2.13;1.92;;;19.10;99.90;;;;;;3999096;29;20210;-96
2023/07/27 10:25:23;;;;;;;2.95;1.90;;;19.50;99.90;;;;;;3999520;29;20191;-96
2023/07/27 10:27:56;;;;;;;1.83;1.67;;;19.40;99.90;;;;;;4026333;29;20204;-95
2023/07/27 10:30:26;;;;;;;;;;;;;;;;;;;;;
2023/07/27 10:35:34;;;;;;;4.18;2.08;;;19.70;99.90;;;;;;4075857;29;20198;-96
2023/07/27 10:38:11;;;;;;;3.90;2.13;;;19.80;99.90;;;;;;4018522;29;20214;-96
2023/07/27 10:41:53;;;;;;;;;;;;;;;;;;;;;
2023/07/27 10:44:52;;;;;;;;;;;;;;;;;;;;;
2023/07/27 10:51:33;;;;;;;2.88;1.90;;;20.10;99.90;;;;;;4015556;29;20602;-96
2023/07/27 10:54:06;;;;;;;4.10;1.83;;;20.50;99.90;;;;;;4028007;29;20663;-96
2023/07/27 10:56:41;;;;;;;2.20;1.90;;;20.20;99.90;;;;;;4032438;29;21293;-96
2023/07/27 10:59:48;;;;;;;2.63;1.65;;;20.10;99.90;;;;;;4030206;29;20218;-96
2023/07/27 11:02:43;;;;;;;4.50;2.03;;;20.30;99.90;;;;;;4041639;29;20730;-96
2023/07/27 11:04:47;;;;;;;6.18;2.20;;;20.40;99.90;;;;;;4052022;29;20200;-96
2023/07/27 11:07:05;;;;;;;3.70;1.73;;;20.30;99.90;;;;;;4044959;29;20192;-96
2023/07/27 11:09:16;;;;;;;2.30;1.70;;;20.00;99.90;;;;;;4043301;29;20194;-96
2023/07/27 11:12:11;;;;;;;1.75;1.65;;;19.90;99.90;;;;;;4056382;29;20188;-96
2023/07/27 11:14:24;;;;;;;2.75;1.58;;;19.90;99.90;;;;;;4075311;29;20344;-96
2023/07/27 11:16:24;;;;;;;3.15;1.70;;;20.00;99.90;;;;;;4039605;29;20196;-94
2023/07/27 11:19:00;;;;;;;;;;;;;;;;;;;;;
2023/07/27 11:21:15;;;;;;;6.30;1.80;;;20.40;99.90;;;;;;4054510;29;20228;-96
2023/07/27 11:23:20;;;;;;;2.58;1.70;;;20.40;99.90;;;;;;4039891;29;20639;-96
2023/07/27 11:25:25;;;;;;;3.03;1.77;;;20.20;99.90;;;;;;4039493;29;20186;-96
2023/07/27 11:27:57;;;;;;;2.55;1.80;;;20.50;99.90;;;;;;4039814;29;20241;-95
2023/07/27 11:30:04;;;;;;;2.55;1.70;;;20.60;99.90;;;;;;4038223;29;20213;-95
2023/07/27 11:32:14;;;;;;;2.28;1.60;;;20.40;99.90;;;;;;4039594;29;20226;-95
2023/07/27 11:34:21;;;;;;;2.55;1.63;;;20.00;99.90;;;;;;4054704;29;20240;-94
2023/07/27 11:36:22;;;;;;;3.17;1.60;;;19.90;99.90;;;;;;4054712;29;20214;-95
2023/07/27 11:38:23;;;;;;;3.70;1.60;;;19.70;99.90;;;;;;4054721;29;20674;-95
2023/07/27 11:40:33;;;;;;;4.57;1.52;;;19.80;99.90;;;;;;4039552;29;20238;-95
2023/07/27 11:42:37;;;;;;;3.60;1.70;;;20.10;99.90;;;;;;4055420;29;20197;-95